sensor_id;sensor_type;location;lat;lon;timestamp;pressure;altitude;pressure_sealevel;temperature;humidity
62632;BME280;48703;51.248;-0.546;2023-08-01T00:01:48;99561;;;15.30;91.23
62632;BME280;48703;51.248;-0.546;2023-08-01T00:04:50;99558;;;15.29;91.28
62632;BME280;48703;51.248;-0.546;2023-08-01T00:07:52;99557;;;15.25;91.66
62632;BME280;48703;51.248;-0.546;2023-08-01T00:10:54;99557;;;15.24;91.49
62632;BME280;48703;51.248;-0.546;2023-08-01T00:13:56;99558;;;15.24;91.50
62632;BME280;48703;51.248;-0.546;2023-08-01T00:16:58;99556;;;15.22;91.74
62632;BME280;48703;51.248;-0.546;2023-08-01T00:20:00;99560;;;15.20;91.99
62632;BME280;48703;51.248;-0.546;2023-08-01T00:23:01;99559;;;15.19;92.13
62632;BME280;48703;51.248;-0.546;2023-08-01T00:26:03;99561;;;15.18;92.02
62632;BME280;48703;51.248;-0.546;2023-08-01T00:29:05;99564;;;15.17;92.18
62632;BME280;48703;51.248;-0.546;2023-08-01T00:32:07;99563;;;15.16;92.36
62632;BME280;48703;51.248;-0.546;2023-08-01T00:35:09;99563;;;15.13;92.28
62632;BME280;48703;51.248;-0.546;2023-08-01T00:38:11;99561;;;15.11;92.69
62632;BME280;48703;51.248;-0.546;2023-08-01T00:41:13;99559;;;15.10;92.43
62632;BME280;48703;51.248;-0.546;2023-08-01T00:44:15;99563;;;15.09;92.53
62632;BME280;48703;51.248;-0.546;2023-08-01T00:47:17;99571;;;15.07;93.31
62632;BME280;48703;51.248;-0.546;2023-08-01T00:50:19;99572;;;15.08;92.60
62632;BME280;48703;51.248;-0.546;2023-08-01T00:53:21;99567;;;15.08;92.44
62632;BME280;48703;51.248;-0.546;2023-08-01T00:56:23;99566;;;15.06;92.76
62632;BME280;48703;51.248;-0.546;2023-08-01T00:59:25;99568;;;15.05;92.87
62632;BME280;48703;51.248;-0.546;2023-08-01T01:02:26;99567;;;15.04;92.67
62632;BME280;48703;51.248;-0.546;2023-08-01T01:05:30;99565;;;15.03;92.71
62632;BME280;48703;51.248;-0.546;2023-08-01T01:08:30;99564;;;15.02;92.81
62632;BME280;48703;51.248;-0.546;2023-08-01T01:11:32;99559;;;15.02;92.91
62632;BME280;48703;51.248;-0.546;2023-08-01T01:14:34;99558;;;15.00;93.06
62632;BME280;48703;51.248;-0.546;2023-08-01T01:17:36;99559;;;14.97;93.27
62632;BME280;48703;51.248;-0.546;2023-08-01T01:20:38;99561;;;14.96;93.19
62632;BME280;48703;51.248;-0.546;2023-08-01T01:23:40;99563;;;14.95;93.35
62632;BME280;48703;51.248;-0.546;2023-08-01T01:26:42;99565;;;14.94;93.37
62632;BME280;48703;51.248;-0.546;2023-08-01T01:29:44;99568;;;14.94;93.53
62632;BME280;48703;51.248;-0.546;2023-08-01T01:32:46;99568;;;14.93;93.29
62632;BME280;48703;51.248;-0.546;2023-08-01T01:35:48;99574;;;14.93;93.34
62632;BME280;48703;51.248;-0.546;2023-08-01T01:38:50;99579;;;14.92;93.71
62632;BME280;48703;51.248;-0.546;2023-08-01T01:41:52;99577;;;14.90;93.88
62632;BME280;48703;51.248;-0.546;2023-08-01T01:44:53;99574;;;14.90;93.75
62632;BME280;48703;51.248;-0.546;2023-08-01T01:47:55;99576;;;14.90;94.01
62632;BME280;48703;51.248;-0.546;2023-08-01T01:50:57;99576;;;14.88;94.52
62632;BME280;48703;51.248;-0.546;2023-08-01T01:53:59;99571;;;14.87;94.35
62632;BME280;48703;51.248;-0.546;2023-08-01T01:57:01;99572;;;14.88;94.23
62632;BME280;48703;51.248;-0.546;2023-08-01T02:00:03;99574;;;14.90;93.90
62632;BME280;48703;51.248;-0.546;2023-08-01T02:03:05;99573;;;14.92;93.77
62632;BME280;48703;51.248;-0.546;2023-08-01T02:06:07;99574;;;14.92;93.73
62632;BME280;48703;51.248;-0.546;2023-08-01T02:09:09;99576;;;14.93;93.48
62632;BME280;48703;51.248;-0.546;2023-08-01T02:12:11;99573;;;14.93;93.37
62632;BME280;48703;51.248;-0.546;2023-08-01T02:15:13;99579;;;14.93;93.68
62632;BME280;48703;51.248;-0.546;2023-08-01T02:18:15;99575;;;14.91;93.56
62632;BME280;48703;51.248;-0.546;2023-08-01T02:21:16;99576;;;14.91;93.33
62632;BME280;48703;51.248;-0.546;2023-08-01T02:24:18;99578;;;14.89;93.60
62632;BME280;48703;51.248;-0.546;2023-08-01T02:27:20;99575;;;14.88;93.50
62632;BME280;48703;51.248;-0.546;2023-08-01T02:30:22;99570;;;14.87;93.46
62632;BME280;48703;51.248;-0.546;2023-08-01T02:33:24;99571;;;14.86;93.38
62632;BME280;48703;51.248;-0.546;2023-08-01T02:36:26;99574;;;14.84;93.69
62632;BME280;48703;51.248;-0.546;2023-08-01T02:39:28;99570;;;14.84;93.47
62632;BME280;48703;51.248;-0.546;2023-08-01T02:42:30;99567;;;14.83;93.35
62632;BME280;48703;51.248;-0.546;2023-08-01T02:45:32;99569;;;14.82;93.47
62632;BME280;48703;51.248;-0.546;2023-08-01T02:48:34;99567;;;14.81;93.45
62632;BME280;48703;51.248;-0.546;2023-08-01T02:51:36;99566;;;14.80;93.46
62632;BME280;48703;51.248;-0.546;2023-08-01T02:54:38;99566;;;14.78;93.57
62632;BME280;48703;51.248;-0.546;2023-08-01T02:57:40;99561;;;14.76;93.86
62632;BME280;48703;51.248;-0.546;2023-08-01T03:00:41;99563;;;14.73;93.93
62632;BME280;48703;51.248;-0.546;2023-08-01T03:03:43;99567;;;14.72;93.89
62632;BME280;48703;51.248;-0.546;2023-08-01T03:06:45;99573;;;14.71;93.52
62632;BME280;48703;51.248;-0.546;2023-08-01T03:09:47;99576;;;14.71;93.51
62632;BME280;48703;51.248;-0.546;2023-08-01T03:12:49;99575;;;14.69;93.74
62632;BME280;48703;51.248;-0.546;2023-08-01T03:15:51;99570;;;14.67;93.80
62632;BME280;48703;51.248;-0.546;2023-08-01T03:18:53;99567;;;14.66;93.48
62632;BME280;48703;51.248;-0.546;2023-08-01T03:21:55;99570;;;14.65;93.49
62632;BME280;48703;51.248;-0.546;2023-08-01T03:24:57;99565;;;14.63;93.73
62632;BME280;48703;51.248;-0.546;2023-08-01T03:27:59;99564;;;14.60;93.74
62632;BME280;48703;51.248;-0.546;2023-08-01T03:31:01;99560;;;14.60;93.70
62632;BME280;48703;51.248;-0.546;2023-08-01T03:34:03;99560;;;14.59;93.74
62632;BME280;48703;51.248;-0.546;2023-08-01T03:37:05;99558;;;14.56;93.89
62632;BME280;48703;51.248;-0.546;2023-08-01T03:40:07;99558;;;14.54;93.81
62632;BME280;48703;51.248;-0.546;2023-08-01T03:43:08;99562;;;14.53;93.65
62632;BME280;48703;51.248;-0.546;2023-08-01T03:46:10;99563;;;14.51;93.84
62632;BME280;48703;51.248;-0.546;2023-08-01T03:49:12;99561;;;14.50;93.91
62632;BME280;48703;51.248;-0.546;2023-08-01T03:52:14;99560;;;14.48;93.91
62632;BME280;48703;51.248;-0.546;2023-08-01T03:55:16;99559;;;14.46;94.00
62632;BME280;48703;51.248;-0.546;2023-08-01T03:58:18;99561;;;14.44;94.33
62632;BME280;48703;51.248;-0.546;2023-08-01T04:01:20;99562;;;14.42;94.11
62632;BME280;48703;51.248;-0.546;2023-08-01T04:04:22;99563;;;14.41;94.32
62632;BME280;48703;51.248;-0.546;2023-08-01T04:07:24;99562;;;14.39;94.30
62632;BME280;48703;51.248;-0.546;2023-08-01T04:10:26;99565;;;14.38;94.19
62632;BME280;48703;51.248;-0.546;2023-08-01T04:13:28;99562;;;14.37;94.15
62632;BME280;48703;51.248;-0.546;2023-08-01T04:16:30;99563;;;14.35;94.21
62632;BME280;48703;51.248;-0.546;2023-08-01T04:19:31;99562;;;14.35;94.28
62632;BME280;48703;51.248;-0.546;2023-08-01T04:22:33;99560;;;14.32;94.23
62632;BME280;48703;51.248;-0.546;2023-08-01T04:25:35;99559;;;14.31;94.14
62632;BME280;48703;51.248;-0.546;2023-08-01T04:28:37;99559;;;14.30;94.64
62632;BME280;48703;51.248;-0.546;2023-08-01T04:31:39;99558;;;14.28;94.68
62632;BME280;48703;51.248;-0.546;2023-08-01T04:34:41;99556;;;14.26;94.58
62632;BME280;48703;51.248;-0.546;2023-08-01T04:37:43;99556;;;14.26;94.68
62632;BME280;48703;51.248;-0.546;2023-08-01T04:40:45;99558;;;14.23;95.05
62632;BME280;48703;51.248;-0.546;2023-08-01T04:43:47;99568;;;14.23;95.02
62632;BME280;48703;51.248;-0.546;2023-08-01T04:46:49;99569;;;14.22;95.15
62632;BME280;48703;51.248;-0.546;2023-08-01T04:49:51;99574;;;14.20;95.31
62632;BME280;48703;51.248;-0.546;2023-08-01T04:52:53;99576;;;14.18;95.46
62632;BME280;48703;51.248;-0.546;2023-08-01T04:55:55;99577;;;14.17;95.12
62632;BME280;48703;51.248;-0.546;2023-08-01T04:58:56;99586;;;14.17;95.16
62632;BME280;48703;51.248;-0.546;2023-08-01T05:01:58;99589;;;14.17;95.00
62632;BME280;48703;51.248;-0.546;2023-08-01T05:05:00;99590;;;14.17;95.47
62632;BME280;48703;51.248;-0.546;2023-08-01T05:08:02;99590;;;14.16;95.08
62632;BME280;48703;51.248;-0.546;2023-08-01T05:11:04;99592;;;14.16;95.28
62632;BME280;48703;51.248;-0.546;2023-08-01T05:14:06;99591;;;14.16;95.45
62632;BME280;48703;51.248;-0.546;2023-08-01T05:17:08;99594;;;14.17;95.12
62632;BME280;48703;51.248;-0.546;2023-08-01T05:20:10;99597;;;14.17;95.05
62632;BME280;48703;51.248;-0.546;2023-08-01T05:23:12;99596;;;14.17;95.09
62632;BME280;48703;51.248;-0.546;2023-08-01T05:26:14;99589;;;14.17;94.97
62632;BME280;48703;51.248;-0.546;2023-08-01T05:29:16;99587;;;14.19;95.04
62632;BME280;48703;51.248;-0.546;2023-08-01T05:32:18;99590;;;14.21;95.26
62632;BME280;48703;51.248;-0.546;2023-08-01T05:35:20;99590;;;14.22;95.60
62632;BME280;48703;51.248;-0.546;2023-08-01T05:38:21;99597;;;14.24;95.13
62632;BME280;48703;51.248;-0.546;2023-08-01T05:41:23;99598;;;14.27;95.99
62632;BME280;48703;51.248;-0.546;2023-08-01T05:44:25;99602;;;14.28;95.80
62632;BME280;48703;51.248;-0.546;2023-08-01T05:47:27;99607;;;14.31;95.37
62632;BME280;48703;51.248;-0.546;2023-08-01T05:50:29;99610;;;14.34;95.59
62632;BME280;48703;51.248;-0.546;2023-08-01T05:53:31;99611;;;14.36;95.60
62632;BME280;48703;51.248;-0.546;2023-08-01T05:56:33;99613;;;14.38;95.52
62632;BME280;48703;51.248;-0.546;2023-08-01T05:59:35;99615;;;14.41;95.10
62632;BME280;48703;51.248;-0.546;2023-08-01T06:02:37;99618;;;14.44;95.15
62632;BME280;48703;51.248;-0.546;2023-08-01T06:05:39;99615;;;14.47;95.10
62632;BME280;48703;51.248;-0.546;2023-08-01T06:08:41;99620;;;14.50;95.07
62632;BME280;48703;51.248;-0.546;2023-08-01T06:11:43;99617;;;14.53;94.76
62632;BME280;48703;51.248;-0.546;2023-08-01T06:14:45;99613;;;14.56;94.57
62632;BME280;48703;51.248;-0.546;2023-08-01T06:17:46;99619;;;14.59;94.13
62632;BME280;48703;51.248;-0.546;2023-08-01T06:20:48;99619;;;14.64;93.85
62632;BME280;48703;51.248;-0.546;2023-08-01T06:23:50;99616;;;14.70;93.49
62632;BME280;48703;51.248;-0.546;2023-08-01T06:26:52;99620;;;14.79;93.80
62632;BME280;48703;51.248;-0.546;2023-08-01T06:29:54;99622;;;14.87;93.09
62632;BME280;48703;51.248;-0.546;2023-08-01T06:32:56;99627;;;14.95;92.70
62632;BME280;48703;51.248;-0.546;2023-08-01T06:35:58;99632;;;15.00;91.55
62632;BME280;48703;51.248;-0.546;2023-08-01T06:39:00;99631;;;15.01;89.43
62632;BME280;48703;51.248;-0.546;2023-08-01T06:42:02;99636;;;15.01;90.23
62632;BME280;48703;51.248;-0.546;2023-08-01T06:45:04;99640;;;15.00;90.51
62632;BME280;48703;51.248;-0.546;2023-08-01T06:48:06;99639;;;15.00;90.51
62632;BME280;48703;51.248;-0.546;2023-08-01T06:51:08;99639;;;15.01;90.09
62632;BME280;48703;51.248;-0.546;2023-08-01T06:54:10;99646;;;15.04;89.10
62632;BME280;48703;51.248;-0.546;2023-08-01T06:57:11;99654;;;15.12;88.40
62632;BME280;48703;51.248;-0.546;2023-08-01T07:00:14;99652;;;15.18;88.56
62632;BME280;48703;51.248;-0.546;2023-08-01T07:03:15;99652;;;15.19;88.95
62632;BME280;48703;51.248;-0.546;2023-08-01T07:06:17;99651;;;15.19;88.62
62632;BME280;48703;51.248;-0.546;2023-08-01T07:09:19;99653;;;15.20;87.81
62632;BME280;48703;51.248;-0.546;2023-08-01T07:12:21;99652;;;15.22;87.45
62632;BME280;48703;51.248;-0.546;2023-08-01T07:15:23;99654;;;15.25;87.10
62632;BME280;48703;51.248;-0.546;2023-08-01T07:18:25;99654;;;15.29;86.94
62632;BME280;48703;51.248;-0.546;2023-08-01T07:21:27;99649;;;15.33;86.26
62632;BME280;48703;51.248;-0.546;2023-08-01T07:24:29;99649;;;15.34;86.22
62632;BME280;48703;51.248;-0.546;2023-08-01T07:27:31;99644;;;15.38;85.94
62632;BME280;48703;51.248;-0.546;2023-08-01T07:30:33;99638;;;15.41;85.49
62632;BME280;48703;51.248;-0.546;2023-08-01T07:33:35;99637;;;15.44;83.85
62632;BME280;48703;51.248;-0.546;2023-08-01T07:36:36;99644;;;15.47;83.77
62632;BME280;48703;51.248;-0.546;2023-08-01T07:39:38;99645;;;15.50;82.79
62632;BME280;48703;51.248;-0.546;2023-08-01T07:42:40;99646;;;15.52;82.00
62632;BME280;48703;51.248;-0.546;2023-08-01T07:45:42;99649;;;15.54;80.81
62632;BME280;48703;51.248;-0.546;2023-08-01T07:48:44;99652;;;15.56;81.96
62632;BME280;48703;51.248;-0.546;2023-08-01T07:51:46;99654;;;15.62;82.51
62632;BME280;48703;51.248;-0.546;2023-08-01T07:54:48;99655;;;15.64;83.20
62632;BME280;48703;51.248;-0.546;2023-08-01T07:57:50;99664;;;15.65;83.22
62632;BME280;48703;51.248;-0.546;2023-08-01T08:00:52;99672;;;15.66;83.17
62632;BME280;48703;51.248;-0.546;2023-08-01T08:03:54;99676;;;15.70;81.99
62632;BME280;48703;51.248;-0.546;2023-08-01T08:06:56;99675;;;15.76;82.70
62632;BME280;48703;51.248;-0.546;2023-08-01T08:09:58;99681;;;15.79;80.15
62632;BME280;48703;51.248;-0.546;2023-08-01T08:13:00;99674;;;15.87;79.31
62632;BME280;48703;51.248;-0.546;2023-08-01T08:16:02;99671;;;15.93;79.65
62632;BME280;48703;51.248;-0.546;2023-08-01T08:19:03;99668;;;16.03;78.23
62632;BME280;48703;51.248;-0.546;2023-08-01T08:22:05;99667;;;16.14;79.22
62632;BME280;48703;51.248;-0.546;2023-08-01T08:25:07;99673;;;16.21;77.99
62632;BME280;48703;51.248;-0.546;2023-08-01T08:28:09;99671;;;16.29;78.43
62632;BME280;48703;51.248;-0.546;2023-08-01T08:31:11;99680;;;16.33;76.30
62632;BME280;48703;51.248;-0.546;2023-08-01T08:34:13;99680;;;16.39;74.98
62632;BME280;48703;51.248;-0.546;2023-08-01T08:37:15;99681;;;16.38;73.31
62632;BME280;48703;51.248;-0.546;2023-08-01T08:40:17;99680;;;16.39;72.47
62632;BME280;48703;51.248;-0.546;2023-08-01T08:43:19;99675;;;16.45;70.44
62632;BME280;48703;51.248;-0.546;2023-08-01T08:46:21;99667;;;16.48;73.12
62632;BME280;48703;51.248;-0.546;2023-08-01T08:49:23;99672;;;16.50;74.13
62632;BME280;48703;51.248;-0.546;2023-08-01T08:52:25;99673;;;16.48;70.05
62632;BME280;48703;51.248;-0.546;2023-08-01T08:55:26;99678;;;16.49;70.73
62632;BME280;48703;51.248;-0.546;2023-08-01T08:58:28;99678;;;16.52;69.56
62632;BME280;48703;51.248;-0.546;2023-08-01T09:01:31;99682;;;16.55;70.54
62632;BME280;48703;51.248;-0.546;2023-08-01T09:04:32;99684;;;16.61;72.67
62632;BME280;48703;51.248;-0.546;2023-08-01T09:07:34;99681;;;16.63;71.84
62632;BME280;48703;51.248;-0.546;2023-08-01T09:10:36;99680;;;16.70;70.55
62632;BME280;48703;51.248;-0.546;2023-08-01T09:13:38;99679;;;16.79;71.16
62632;BME280;48703;51.248;-0.546;2023-08-01T09:16:40;99677;;;16.90;69.48
62632;BME280;48703;51.248;-0.546;2023-08-01T09:19:42;99680;;;16.98;68.78
62632;BME280;48703;51.248;-0.546;2023-08-01T09:22:44;99676;;;16.99;69.57
62632;BME280;48703;51.248;-0.546;2023-08-01T09:25:46;99675;;;17.03;67.57
62632;BME280;48703;51.248;-0.546;2023-08-01T09:28:55;99681;;;17.10;67.93
62632;BME280;48703;51.248;-0.546;2023-08-01T09:31:49;99681;;;17.23;66.87
62632;BME280;48703;51.248;-0.546;2023-08-01T09:34:57;99678;;;17.34;64.54
62632;BME280;48703;51.248;-0.546;2023-08-01T09:37:53;99675;;;17.38;64.40
62632;BME280;48703;51.248;-0.546;2023-08-01T09:40:55;99679;;;17.39;65.15
62632;BME280;48703;51.248;-0.546;2023-08-01T09:43:57;99679;;;17.37;64.50
62632;BME280;48703;51.248;-0.546;2023-08-01T09:47:00;99676;;;17.41;65.81
62632;BME280;48703;51.248;-0.546;2023-08-01T09:50:01;99684;;;17.49;67.94
62632;BME280;48703;51.248;-0.546;2023-08-01T09:53:07;99682;;;17.53;64.94
62632;BME280;48703;51.248;-0.546;2023-08-01T09:56:05;99700;;;17.50;65.06
62632;BME280;48703;51.248;-0.546;2023-08-01T09:59:07;99699;;;17.56;64.12
62632;BME280;48703;51.248;-0.546;2023-08-01T10:02:09;99702;;;17.64;64.00
62632;BME280;48703;51.248;-0.546;2023-08-01T10:05:11;99704;;;17.75;64.45
62632;BME280;48703;51.248;-0.546;2023-08-01T10:08:13;99688;;;17.81;65.83
62632;BME280;48703;51.248;-0.546;2023-08-01T10:11:16;99684;;;17.86;65.16
62632;BME280;48703;51.248;-0.546;2023-08-01T10:14:16;99676;;;17.97;62.00
62632;BME280;48703;51.248;-0.546;2023-08-01T10:17:19;99676;;;17.98;62.85
62632;BME280;48703;51.248;-0.546;2023-08-01T10:20:20;99671;;;18.03;62.88
62632;BME280;48703;51.248;-0.546;2023-08-01T10:23:22;99671;;;18.10;63.38
62632;BME280;48703;51.248;-0.546;2023-08-01T10:26:24;99673;;;18.16;63.09
62632;BME280;48703;51.248;-0.546;2023-08-01T10:29:34;99678;;;18.20;61.87
62632;BME280;48703;51.248;-0.546;2023-08-01T10:32:30;99679;;;18.21;62.67
62632;BME280;48703;51.248;-0.546;2023-08-01T10:35:32;99683;;;18.27;64.33
62632;BME280;48703;51.248;-0.546;2023-08-01T10:38:32;99673;;;18.32;63.96
62632;BME280;48703;51.248;-0.546;2023-08-01T10:41:34;99684;;;18.33;62.25
62632;BME280;48703;51.248;-0.546;2023-08-01T10:44:44;99684;;;18.44;60.85
62632;BME280;48703;51.248;-0.546;2023-08-01T10:47:38;99684;;;18.47;61.60
62632;BME280;48703;51.248;-0.546;2023-08-01T10:50:39;99688;;;18.48;60.97
62632;BME280;48703;51.248;-0.546;2023-08-01T10:53:41;99686;;;18.45;61.01
62632;BME280;48703;51.248;-0.546;2023-08-01T10:56:44;99684;;;18.45;62.04
62632;BME280;48703;51.248;-0.546;2023-08-01T10:59:45;99682;;;18.46;62.87
62632;BME280;48703;51.248;-0.546;2023-08-01T11:02:48;99683;;;18.47;62.18
62632;BME280;48703;51.248;-0.546;2023-08-01T11:05:56;99684;;;18.53;62.82
62632;BME280;48703;51.248;-0.546;2023-08-01T11:08:51;99688;;;18.60;63.66
62632;BME280;48703;51.248;-0.546;2023-08-01T11:11:53;99691;;;18.67;61.34
62632;BME280;48703;51.248;-0.546;2023-08-01T11:14:58;99694;;;18.74;62.68
62632;BME280;48703;51.248;-0.546;2023-08-01T11:17:57;99700;;;18.80;64.29
62632;BME280;48703;51.248;-0.546;2023-08-01T11:20:59;99701;;;18.89;63.19
62632;BME280;48703;51.248;-0.546;2023-08-01T11:24:05;99696;;;18.96;61.80
62632;BME280;48703;51.248;-0.546;2023-08-01T11:27:03;99699;;;18.98;60.83
62632;BME280;48703;51.248;-0.546;2023-08-01T11:30:05;99697;;;18.95;60.36
62632;BME280;48703;51.248;-0.546;2023-08-01T11:33:14;99692;;;18.98;60.97
62632;BME280;48703;51.248;-0.546;2023-08-01T11:36:08;99689;;;19.00;60.53
62632;BME280;48703;51.248;-0.546;2023-08-01T11:39:10;99683;;;19.09;61.15
62632;BME280;48703;51.248;-0.546;2023-08-01T11:42:15;99681;;;19.08;59.07
62632;BME280;48703;51.248;-0.546;2023-08-01T11:45:14;99676;;;19.05;59.35
62632;BME280;48703;51.248;-0.546;2023-08-01T11:48:16;99670;;;19.08;58.17
62632;BME280;48703;51.248;-0.546;2023-08-01T11:51:18;99671;;;19.17;57.56
62632;BME280;48703;51.248;-0.546;2023-08-01T11:54:20;99678;;;19.27;56.68
62632;BME280;48703;51.248;-0.546;2023-08-01T11:57:22;99676;;;19.32;56.79
62632;BME280;48703;51.248;-0.546;2023-08-01T12:00:25;99671;;;19.38;54.87
62632;BME280;48703;51.248;-0.546;2023-08-01T12:03:26;99665;;;19.38;56.52
62632;BME280;48703;51.248;-0.546;2023-08-01T12:06:30;99665;;;19.45;56.32
62632;BME280;48703;51.248;-0.546;2023-08-01T12:09:31;99668;;;19.51;56.56
62632;BME280;48703;51.248;-0.546;2023-08-01T12:12:31;99665;;;19.52;56.33
62632;BME280;48703;51.248;-0.546;2023-08-01T12:15:33;99670;;;19.49;56.53
62632;BME280;48703;51.248;-0.546;2023-08-01T12:18:35;99668;;;19.47;56.27
62632;BME280;48703;51.248;-0.546;2023-08-01T12:21:37;99661;;;19.51;57.20
62632;BME280;48703;51.248;-0.546;2023-08-01T12:24:39;99661;;;19.54;55.67
62632;BME280;48703;51.248;-0.546;2023-08-01T12:27:41;99657;;;19.58;56.24
62632;BME280;48703;51.248;-0.546;2023-08-01T12:30:43;99658;;;19.68;57.71
62632;BME280;48703;51.248;-0.546;2023-08-01T12:33:45;99659;;;19.75;56.81
62632;BME280;48703;51.248;-0.546;2023-08-01T12:36:47;99656;;;19.76;57.37
62632;BME280;48703;51.248;-0.546;2023-08-01T12:39:49;99657;;;19.84;58.15
62632;BME280;48703;51.248;-0.546;2023-08-01T12:42:51;99651;;;19.91;58.48
62632;BME280;48703;51.248;-0.546;2023-08-01T12:45:53;99647;;;19.92;58.21
62632;BME280;48703;51.248;-0.546;2023-08-01T12:48:55;99643;;;19.94;58.47
62632;BME280;48703;51.248;-0.546;2023-08-01T12:51:56;99650;;;20.00;57.66
62632;BME280;48703;51.248;-0.546;2023-08-01T12:54:58;99650;;;20.06;57.93
62632;BME280;48703;51.248;-0.546;2023-08-01T12:58:00;99645;;;20.06;58.43
62632;BME280;48703;51.248;-0.546;2023-08-01T13:01:02;99646;;;20.12;57.05
62632;BME280;48703;51.248;-0.546;2023-08-01T13:04:04;99649;;;20.17;58.50
62632;BME280;48703;51.248;-0.546;2023-08-01T13:07:06;99649;;;20.22;57.41
62632;BME280;48703;51.248;-0.546;2023-08-01T13:10:08;99653;;;20.25;58.21
62632;BME280;48703;51.248;-0.546;2023-08-01T13:13:10;99656;;;20.32;57.02
62632;BME280;48703;51.248;-0.546;2023-08-01T13:16:12;99654;;;20.40;57.82
62632;BME280;48703;51.248;-0.546;2023-08-01T13:19:14;99652;;;20.36;56.73
62632;BME280;48703;51.248;-0.546;2023-08-01T13:22:16;99656;;;20.28;57.20
62632;BME280;48703;51.248;-0.546;2023-08-01T13:25:18;99654;;;20.30;57.00
62632;BME280;48703;51.248;-0.546;2023-08-01T13:28:20;99646;;;20.38;57.49
62632;BME280;48703;51.248;-0.546;2023-08-01T13:31:22;99645;;;20.44;58.78
62632;BME280;48703;51.248;-0.546;2023-08-01T13:34:23;99654;;;20.52;58.11
62632;BME280;48703;51.248;-0.546;2023-08-01T13:37:25;99649;;;20.55;56.91
62632;BME280;48703;51.248;-0.546;2023-08-01T13:40:27;99643;;;20.59;56.19
62632;BME280;48703;51.248;-0.546;2023-08-01T13:43:29;99642;;;20.65;57.17
62632;BME280;48703;51.248;-0.546;2023-08-01T13:46:31;99641;;;20.66;55.13
62632;BME280;48703;51.248;-0.546;2023-08-01T13:49:33;99640;;;20.66;57.08
62632;BME280;48703;51.248;-0.546;2023-08-01T13:52:36;99638;;;20.71;56.46
62632;BME280;48703;51.248;-0.546;2023-08-01T13:55:37;99632;;;20.68;56.59
62632;BME280;48703;51.248;-0.546;2023-08-01T13:58:39;99643;;;20.68;55.61
62632;BME280;48703;51.248;-0.546;2023-08-01T14:01:41;99640;;;20.69;55.77
62632;BME280;48703;51.248;-0.546;2023-08-01T14:04:43;99644;;;20.69;55.52
62632;BME280;48703;51.248;-0.546;2023-08-01T14:07:45;99640;;;20.74;56.65
62632;BME280;48703;51.248;-0.546;2023-08-01T14:10:47;99638;;;20.81;56.99
62632;BME280;48703;51.248;-0.546;2023-08-01T14:13:49;99631;;;20.82;57.82
62632;BME280;48703;51.248;-0.546;2023-08-01T14:16:51;99626;;;20.83;58.33
62632;BME280;48703;51.248;-0.546;2023-08-01T14:19:52;99626;;;20.80;58.50
62632;BME280;48703;51.248;-0.546;2023-08-01T14:22:54;99614;;;20.80;57.78
62632;BME280;48703;51.248;-0.546;2023-08-01T14:25:57;99607;;;20.79;58.39
62632;BME280;48703;51.248;-0.546;2023-08-01T14:28:58;99604;;;20.82;59.34
62632;BME280;48703;51.248;-0.546;2023-08-01T14:31:00;99608;;;20.82;59.27
62632;BME280;48703;51.248;-0.546;2023-08-01T14:34:01;99608;;;20.82;59.59
62632;BME280;48703;51.248;-0.546;2023-08-01T14:37:03;99607;;;20.80;60.95
62632;BME280;48703;51.248;-0.546;2023-08-01T14:41:06;99604;;;20.70;63.15
62632;BME280;48703;51.248;-0.546;2023-08-01T14:44:08;99602;;;20.62;64.88
62632;BME280;48703;51.248;-0.546;2023-08-01T14:47:10;99598;;;20.55;65.60
62632;BME280;48703;51.248;-0.546;2023-08-01T14:50:12;99602;;;20.51;67.04
62632;BME280;48703;51.248;-0.546;2023-08-01T14:53:14;99598;;;20.54;67.51
62632;BME280;48703;51.248;-0.546;2023-08-01T14:56:16;99593;;;20.66;68.24
62632;BME280;48703;51.248;-0.546;2023-08-01T14:59:18;99601;;;20.74;68.45
62632;BME280;48703;51.248;-0.546;2023-08-01T15:02:20;99598;;;20.74;68.08
62632;BME280;48703;51.248;-0.546;2023-08-01T15:05:22;99597;;;20.71;68.64
62632;BME280;48703;51.248;-0.546;2023-08-01T15:08:24;99599;;;20.61;68.54
62632;BME280;48703;51.248;-0.546;2023-08-01T15:11:25;99598;;;20.58;69.34
62632;BME280;48703;51.248;-0.546;2023-08-01T15:14:27;99597;;;20.53;69.13
62632;BME280;48703;51.248;-0.546;2023-08-01T15:17:29;99590;;;20.53;69.13
62632;BME280;48703;51.248;-0.546;2023-08-01T15:20:33;99586;;;20.50;69.19
62632;BME280;48703;51.248;-0.546;2023-08-01T15:23:33;99589;;;20.45;69.15
62632;BME280;48703;51.248;-0.546;2023-08-01T15:26:35;99586;;;20.40;69.42
62632;BME280;48703;51.248;-0.546;2023-08-01T15:29:37;99591;;;20.36;69.18
62632;BME280;48703;51.248;-0.546;2023-08-01T15:32:39;99595;;;20.27;68.99
62632;BME280;48703;51.248;-0.546;2023-08-01T15:35:41;99595;;;20.20;68.97
62632;BME280;48703;51.248;-0.546;2023-08-01T15:38:43;99598;;;20.13;68.87
62632;BME280;48703;51.248;-0.546;2023-08-01T15:41:46;99597;;;20.07;68.33
62632;BME280;48703;51.248;-0.546;2023-08-01T15:44:47;99589;;;20.01;68.63
62632;BME280;48703;51.248;-0.546;2023-08-01T15:47:49;99585;;;19.98;69.09
62632;BME280;48703;51.248;-0.546;2023-08-01T15:50:51;99584;;;19.93;69.18
62632;BME280;48703;51.248;-0.546;2023-08-01T15:53:53;99578;;;19.90;69.86
62632;BME280;48703;51.248;-0.546;2023-08-01T15:56:55;99569;;;19.87;70.27
62632;BME280;48703;51.248;-0.546;2023-08-01T15:59:57;99568;;;19.98;71.04
62632;BME280;48703;51.248;-0.546;2023-08-01T16:02:59;99567;;;20.27;70.95
62632;BME280;48703;51.248;-0.546;2023-08-01T16:06:02;99563;;;20.44;70.02
62632;BME280;48703;51.248;-0.546;2023-08-01T16:09:03;99564;;;20.47;69.60
62632;BME280;48703;51.248;-0.546;2023-08-01T16:12:05;99567;;;20.47;69.64
62632;BME280;48703;51.248;-0.546;2023-08-01T16:15:07;99571;;;20.45;69.51
62632;BME280;48703;51.248;-0.546;2023-08-01T16:18:08;99578;;;20.44;69.67
62632;BME280;48703;51.248;-0.546;2023-08-01T16:21:10;99578;;;20.42;69.45
62632;BME280;48703;51.248;-0.546;2023-08-01T16:24:12;99562;;;20.39;69.63
62632;BME280;48703;51.248;-0.546;2023-08-01T16:27:14;99549;;;20.34;70.42
62632;BME280;48703;51.248;-0.546;2023-08-01T16:30:16;99558;;;20.30;70.44